Time;durP1;ratioP1;P1;durP2;ratioP2;P2;SDS_P1;SDS_P2;PMS_P1;PMS_P2;Temp;Humidity;BMP_temperature;BMP_pressure;BME280_temperature;BME280_humidity;BME280_pressure;Samples;Min_cycle;Max_cycle;Signal;HPM_P1;HPM_P2
2022/04/07 00:00:03;;;;;;;;;;;;;;;;;;1283010;23;900;-35
2022/04/07 00:00:34;;;;;;;;;;;;;;;;;;1283171;23;790;-32
2022/04/07 00:01:13;;;;;;;;;;;;;;;;;;1283246;23;1058;-35
2022/04/07 00:01:50;;;;;;;;;;;;;;;;;;1282606;23;940;-32
2022/04/07 00:02:20;;;;;;;;;;;;;;;;;;1282999;23;778;-34
2022/04/07 00:02:50;;;;;;;;;;;;;;;;;;1283367;23;943;-33
2022/04/07 00:03:21;;;;;;;;;;;;;;;;;;1283186;23;934;-35
2022/04/07 00:03:58;;;;;;;;;;;;;;;;;;1282700;23;913;-31
2022/04/07 00:04:29;;;;;;;;;;;;;;;;;;1283358;23;972;-35
2022/04/07 00:04:59;;;;;;;;;;;;;;;;;;1283206;23;1300;-32
2022/04/07 00:05:30;;;;;;;;;;;;;;;;;;1282991;23;956;-34
2022/04/07 00:06:01;;;;;;;;;;;;;;;;;;1283427;23;906;-34
2022/04/07 00:06:38;;;;;;;;;;;;;;;;;;1283204;23;969;-33
2022/04/07 00:07:08;;;;;;;;;;;;;;;;;;1283143;23;903;-36
2022/04/07 00:07:38;;;;;;;;;;;;;;;;;;1283333;23;1035;-33
2022/04/07 00:08:15;;;;;;;;;;;;;;;;;;1283221;23;948;-35
2022/04/07 00:08:45;;;;;;;;;;;;;;;;;;1283179;23;837;-33
2022/04/07 00:09:16;;;;;;;;;;;;;;;;;;1282396;23;1060;-36
2022/04/07 00:09:46;;;;;;;;;;;;;;;;;;1283005;23;1021;-35
2022/04/07 00:10:17;;;;;;;;;;;;;;;;;;1283237;23;809;-34
2022/04/07 00:10:54;;;;;;;;;;;;;;;;;;1283278;23;844;-31
2022/04/07 00:11:24;;;;;;;;;;;;;;;;;;1283119;23;1940;-32
2022/04/07 00:11:55;;;;;;;;;;;;;;;;;;1283248;23;899;-34
2022/04/07 00:12:25;;;;;;;;;;;;;;;;;;1283089;23;1047;-32
2022/04/07 00:12:55;;;;;;;;;;;;;;;;;;1283169;23;1025;-36
2022/04/07 00:13:32;;;;;;;;;;;;;;;;;;1283179;23;949;-31
2022/04/07 00:14:02;;;;;;;;;;;;;;;;;;1283251;23;785;-33
2022/04/07 00:14:33;;;;;;;;;;;;;;;;;;1282835;23;1142;-34
2022/04/07 00:15:03;;;;;;;;;;;;;;;;;;1283105;23;940;-34
2022/04/07 00:15:34;;;;;;;;;;;;;;;;;;1283247;23;829;-33
2022/04/07 00:16:11;;;;;;;;;;;;;;;;;;1283323;23;923;-33
2022/04/07 00:16:41;;;;;;;;;;;;;;;;;;1282717;23;1032;-35
2022/04/07 00:17:11;;;;;;;;;;;;;;;;;;1283111;23;901;-33
2022/04/07 00:17:42;;;;;;;;;;;;;;;;;;1283295;23;901;-36
2022/04/07 00:18:12;;;;;;;;;;;;;;;;;;1283042;23;975;-34
2022/04/07 00:18:49;;;;;;;;;;;;;;;;;;1282852;23;912;-31
2022/04/07 00:19:20;;;;;;;;;;;;;;;;;;1283358;23;925;-34
2022/04/07 00:19:51;;;;;;;;;;;;;;;;;;1282550;23;1024;-34
2022/04/07 00:20:21;;;;;;;;;;;;;;;;;;1283101;23;807;-31
2022/04/07 00:20:52;;;;;;;;;;;;;;;;;;1283300;23;905;-36
2022/04/07 00:21:46;;;;;;;;;;;;;;;;;;1283341;23;909;-35
2022/04/07 00:22:17;;;;;;;;;;;;;;;;;;1283316;23;977;-34
2022/04/07 00:22:54;;;;;;;;;;;;;;;;;;1283033;23;877;-32
2022/04/07 00:23:31;;;;;;;;;;;;;;;;;;1283139;23;932;-33
2022/04/07 00:24:03;;;;;;;;;;;;;;;;;;1282787;23;1187;-36
2022/04/07 00:24:41;;;;;;;;;;;;;;;;;;1283233;23;893;-32
2022/04/07 00:25:11;;;;;;;;;;;;;;;;;;1282622;23;1003;-35
2022/04/07 00:25:42;;;;;;;;;;;;;;;;;;1282718;23;669;-33
2022/04/07 00:26:12;;;;;;;;;;;;;;;;;;1282698;23;933;-33
2022/04/07 00:26:42;;;;;;;;;;;;;;;;;;1282738;23;829;-31
2022/04/07 00:27:19;;;;;;;;;;;;;;;;;;1282942;23;798;-32
2022/04/07 00:27:49;;;;;;;;;;;;;;;;;;1282993;23;1047;-36
2022/04/07 00:28:26;;;;;;;;;;;;;;;;;;1282715;23;1251;-34
2022/04/07 00:28:57;;;;;;;;;;;;;;;;;;1282565;23;750;-34
2022/04/07 00:29:27;;;;;;;;;;;;;;;;;;1282702;23;931;-32
2022/04/07 00:29:58;;;;;;;;;;;;;;;;;;1282595;23;1047;-33
2022/04/07 00:30:28;;;;;;;;;;;;;;;;;;1282979;23;837;-34
2022/04/07 00:31:05;;;;;;;;;;;;;;;;;;1282933;23;1956;-33
2022/04/07 00:31:39;;;;;;;;;;;;;;;;;;1282823;23;944;-34
2022/04/07 00:32:10;;;;;;;;;;;;;;;;;;1283093;23;766;-32
2022/04/07 00:32:43;;;;;;;;;;;;;;;;;;1283153;23;1012;-33
2022/04/07 00:33:20;;;;;;;;;;;;;;;;;;1283368;23;969;-33
2022/04/07 00:33:50;;;;;;;;;;;;;;;;;;1283002;23;909;-35
2022/04/07 00:34:21;;;;;;;;;;;;;;;;;;1283179;23;739;-35
2022/04/07 00:34:54;;;;;;;;;;;;;;;;;;1283166;23;968;-30
2022/04/07 00:35:26;;;;;;;;;;;;;;;;;;1283015;23;849;-35
2022/04/07 00:36:05;;;;;;;;;;;;;;;;;;1282705;23;921;-33
2022/04/07 00:36:35;;;;;;;;;;;;;;;;;;1283095;23;926;-35
2022/04/07 00:37:05;;;;;;;;;;;;;;;;;;1283181;23;921;-33
2022/04/07 00:37:36;;;;;;;;;;;;;;;;;;1283045;23;1286;-36
2022/04/07 00:38:06;;;;;;;;;;;;;;;;;;1283148;23;934;-36
2022/04/07 00:38:43;;;;;;;;;;;;;;;;;;1282783;23;893;-35
2022/04/07 00:39:13;;;;;;;;;;;;;;;;;;1283200;23;821;-32
2022/04/07 00:39:44;;;;;;;;;;;;;;;;;;1282943;23;967;-32
2022/04/07 00:40:21;;;;;;;;;;;;;;;;;;1284340;23;1231;-36
2022/04/07 00:41:05;;;;;;;;;;;;;;;;;;1283273;23;906;-31
2022/04/07 00:41:37;;;;;;;;;;;;;;;;;;1282646;23;890;-34
2022/04/07 00:42:07;;;;;;;;;;;;;;;;;;1283239;23;932;-33
2022/04/07 00:42:45;;;;;;;;;;;;;;;;;;1283271;23;1035;-36
2022/04/07 00:43:31;;;;;;;;;;;;;;;;;;1283160;23;997;-33
2022/04/07 00:44:08;;;;;;;;;;;;;;;;;;1283203;23;957;-34
2022/04/07 00:44:38;;;;;;;;;;;;;;;;;;1283169;23;861;-33
2022/04/07 00:45:15;;;;;;;;;;;;;;;;;;1283140;23;928;-32
2022/04/07 00:45:46;;;;;;;;;;;;;;;;;;1282733;23;1253;-36
2022/04/07 00:46:17;;;;;;;;;;;;;;;;;;1282067;23;1335;-36
2022/04/07 00:46:47;;;;;;;;;;;;;;;;;;1282368;23;774;-34
2022/04/07 00:47:25;;;;;;;;;;;;;;;;;;1282779;23;1087;-37
2022/04/07 00:47:58;;;;;;;;;;;;;;;;;;1283176;23;993;-33
2022/04/07 00:48:28;;;;;;;;;;;;;;;;;;1283173;23;959;-33
2022/04/07 00:48:59;;;;;;;;;;;;;;;;;;1283160;23;925;-36
2022/04/07 00:49:29;;;;;;;;;;;;;;;;;;1283183;23;1182;-35
2022/04/07 00:50:06;;;;;;;;;;;;;;;;;;1282938;23;868;-34
2022/04/07 00:50:36;;;;;;;;;;;;;;;;;;1283059;23;937;-37
2022/04/07 00:51:07;;;;;;;;;;;;;;;;;;1283156;23;1960;-34
2022/04/07 00:51:38;;;;;;;;;;;;;;;;;;1283074;23;1110;-31
2022/04/07 00:52:08;;;;;;;;;;;;;;;;;;1282756;23;1134;-34
2022/04/07 00:52:47;;;;;;;;;;;;;;;;;;1283377;23;1055;-36
2022/04/07 00:53:17;;;;;;;;;;;;;;;;;;1282895;23;928;-30
2022/04/07 00:53:48;;;;;;;;;;;;;;;;;;1282884;23;959;-35
2022/04/07 00:54:18;;;;;;;;;;;;;;;;;;1283251;23;913;-33
2022/04/07 00:54:49;;;;;;;;;;;;;;;;;;1283102;23;794;-36
2022/04/07 00:55:27;;;;;;;;;;;;;;;;;;1283223;23;877;-34
2022/04/07 00:56:00;;;;;;;;;;;;;;;;;;1283307;23;1200;-33
2022/04/07 00:56:30;;;;;;;;;;;;;;;;;;1283060;23;1169;-30
2022/04/07 00:57:01;;;;;;;;;;;;;;;;;;1283128;23;1650;-32
2022/04/07 00:57:32;;;;;;;;;;;;;;;;;;1282704;23;933;-32
2022/04/07 00:58:09;;;;;;;;;;;;;;;;;;1283270;23;958;-35
2022/04/07 00:58:40;;;;;;;;;;;;;;;;;;1283109;23;912;-35
2022/04/07 00:59:14;;;;;;;;;;;;;;;;;;1283206;23;925;-33
2022/04/07 00:59:51;;;;;;;;;;;;;;;;;;1283249;23;901;-32
2022/04/07 01:00:22;;;;;;;;;;;;;;;;;;1283119;23;979;-34
2022/04/07 01:00:52;;;;;;;;;;;;;;;;;;1282642;23;829;-32
2022/04/07 01:01:24;;;;;;;;;;;;;;;;;;1283204;23;924;-35
2022/04/07 01:01:55;;;;;;;;;;;;;;;;;;1283010;23;972;-35
2022/04/07 01:02:32;;;;;;;;;;;;;;;;;;1282986;23;889;-33
2022/04/07 01:03:09;;;;;;;;;;;;;;;;;;1282970;23;905;-33
2022/04/07 01:03:39;;;;;;;;;;;;;;;;;;1283174;23;929;-34
2022/04/07 01:04:10;;;;;;;;;;;;;;;;;;1283010;23;825;-36
2022/04/07 01:04:41;;;;;;;;;;;;;;;;;;1283009;23;993;-32
2022/04/07 01:05:20;;;;;;;;;;;;;;;;;;1283210;23;888;-30
2022/04/07 01:05:51;;;;;;;;;;;;;;;;;;1283027;23;873;-35
2022/04/07 01:06:21;;;;;;;;;;;;;;;;;;1283108;23;825;-36
2022/04/07 01:06:52;;;;;;;;;;;;;;;;;;1283126;23;1016;-34
2022/04/07 01:07:29;;;;;;;;;;;;;;;;;;1283160;23;1002;-33
2022/04/07 01:07:59;;;;;;;;;;;;;;;;;;1282979;23;916;-35
2022/04/07 01:08:30;;;;;;;;;;;;;;;;;;1282352;23;976;-35
2022/04/07 01:09:00;;;;;;;;;;;;;;;;;;1283187;23;945;-34
2022/04/07 01:09:30;;;;;;;;;;;;;;;;;;1283062;23;793;-32
2022/04/07 01:10:08;;;;;;;;;;;;;;;;;;1282925;23;941;-32
2022/04/07 01:10:38;;;;;;;;;;;;;;;;;;1283210;23;976;-32
2022/04/07 01:11:09;;;;;;;;;;;;;;;;;;1282947;23;1938;-33
2022/04/07 01:11:40;;;;;;;;;;;;;;;;;;1283023;23;1049;-35
2022/04/07 01:12:17;;;;;;;;;;;;;;;;;;1283386;23;1045;-35
2022/04/07 01:12:47;;;;;;;;;;;;;;;;;;1282945;23;995;-34
2022/04/07 01:13:19;;;;;;;;;;;;;;;;;;1283076;23;861;-33
2022/04/07 01:13:50;;;;;;;;;;;;;;;;;;1282810;23;960;-35
2022/04/07 01:14:20;;;;;;;;;;;;;;;;;;1282978;23;929;-34
2022/04/07 01:15:00;;;;;;;;;;;;;;;;;;1283060;23;936;-34
2022/04/07 01:15:31;;;;;;;;;;;;;;;;;;1283073;23;910;-32
2022/04/07 01:16:01;;;;;;;;;;;;;;;;;;1282733;23;961;-33
2022/04/07 01:16:32;;;;;;;;;;;;;;;;;;1283130;23;781;-32
2022/04/07 01:17:10;;;;;;;;;;;;;;;;;;1283133;23;968;-36
2022/04/07 01:17:41;;;;;;;;;;;;;;;;;;1283106;23;939;-34
2022/04/07 01:18:12;;;;;;;;;;;;;;;;;;1283043;23;1108;-32
2022/04/07 01:18:49;;;;;;;;;;;;;;;;;;1282635;23;881;-34
2022/04/07 01:19:19;;;;;;;;;;;;;;;;;;1283282;23;1032;-32
2022/04/07 01:19:49;;;;;;;;;;;;;;;;;;1282790;23;805;-30
2022/04/07 01:20:20;;;;;;;;;;;;;;;;;;1283192;23;920;-31
2022/04/07 01:20:50;;;;;;;;;;;;;;;;;;1283228;23;1016;-32
2022/04/07 01:21:27;;;;;;;;;;;;;;;;;;1283124;23;941;-34
2022/04/07 01:21:58;;;;;;;;;;;;;;;;;;1283052;23;801;-34
2022/04/07 01:22:28;;;;;;;;;;;;;;;;;;1283362;23;850;-32
2022/04/07 01:22:58;;;;;;;;;;;;;;;;;;1282692;23;858;-31
2022/04/07 01:23:30;;;;;;;;;;;;;;;;;;1283051;23;765;-35
2022/04/07 01:24:08;;;;;;;;;;;;;;;;;;1282894;23;974;-34
2022/04/07 01:24:46;;;;;;;;;;;;;;;;;;1283277;23;1076;-33
2022/04/07 01:25:17;;;;;;;;;;;;;;;;;;1283033;23;954;-36
2022/04/07 01:25:49;;;;;;;;;;;;;;;;;;1283217;23;820;-33
2022/04/07 01:26:20;;;;;;;;;;;;;;;;;;1283291;23;913;-36
2022/04/07 01:26:57;;;;;;;;;;;;;;;;;;1283168;23;880;-35
2022/04/07 01:27:27;;;;;;;;;;;;;;;;;;1283161;23;856;-33
2022/04/07 01:27:58;;;;;;;;;;;;;;;;;;1283141;23;858;-36
2022/04/07 01:28:28;;;;;;;;;;;;;;;;;;1283215;23;898;-34
2022/04/07 01:28:59;;;;;;;;;;;;;;;;;;1283064;23;1399;-35
2022/04/07 01:29:37;;;;;;;;;;;;;;;;;;1282508;23;1034;-36
2022/04/07 01:30:08;;;;;;;;;;;;;;;;;;1283069;23;876;-32
2022/04/07 01:30:38;;;;;;;;;;;;;;;;;;1282648;23;1085;-35
2022/04/07 01:31:08;;;;;;;;;;;;;;;;;;1282880;23;1900;-36
2022/04/07 01:31:39;;;;;;;;;;;;;;;;;;1283307;23;897;-30
2022/04/07 01:32:19;;;;;;;;;;;;;;;;;;1282999;23;980;-35
2022/04/07 01:32:52;;;;;;;;;;;;;;;;;;1283147;23;810;-36
2022/04/07 01:33:22;;;;;;;;;;;;;;;;;;1283290;23;1039;-34
2022/04/07 01:33:52;;;;;;;;;;;;;;;;;;1282945;23;937;-33
2022/04/07 01:34:23;;;;;;;;;;;;;;;;;;1283176;23;789;-35
2022/04/07 01:35:00;;;;;;;;;;;;;;;;;;1282784;23;975;-33
2022/04/07 01:35:32;;;;;;;;;;;;;;;;;;1283103;23;932;-34
2022/04/07 01:36:02;;;;;;;;;;;;;;;;;;1283080;23;962;-33
2022/04/07 01:36:34;;;;;;;;;;;;;;;;;;1276739;23;954;-33
2022/04/07 01:37:05;;;;;;;;;;;;;;;;;;1276248;23;1255;-34
2022/04/07 01:37:44;;;;;;;;;;;;;;;;;;1276478;23;868;-36
2022/04/07 01:38:16;;;;;;;;;;;;;;;;;;1278791;23;881;-33
2022/04/07 01:38:47;;;;;;;;;;;;;;;;;;1283220;23;976;-33
2022/04/07 01:39:21;;;;;;;;;;;;;;;;;;1282935;23;882;-33
2022/04/07 01:39:52;;;;;;;;;;;;;;;;;;1283070;23;900;-33
2022/04/07 01:40:38;;;;;;;;;;;;;;;;;;1283837;23;1012;-32
2022/04/07 01:41:15;;;;;;;;;;;;;;;;;;1283545;23;1032;-31
2022/04/07 01:41:53;;;;;;;;;;;;;;;;;;1283648;23;955;-33
2022/04/07 01:42:24;;;;;;;;;;;;;;;;;;1283533;23;809;-30
2022/04/07 01:43:04;;;;;;;;;;;;;;;;;;1283290;23;888;-35
2022/04/07 01:43:35;;;;;;;;;;;;;;;;;;1283655;23;984;-36
2022/04/07 01:44:12;;;;;;;;;;;;;;;;;;1283688;23;1025;-32
2022/04/07 01:44:46;;;;;;;;;;;;;;;;;;1283406;23;801;-31
2022/04/07 01:45:16;;;;;;;;;;;;;;;;;;1283098;23;813;-36
2022/04/07 01:45:46;;;;;;;;;;;;;;;;;;1283191;23;932;-31
2022/04/07 01:46:17;;;;;;;;;;;;;;;;;;1283323;23;852;-32
2022/04/07 01:46:54;;;;;;;;;;;;;;;;;;1283506;23;821;-34
2022/04/07 01:47:24;;;;;;;;;;;;;;;;;;1283547;23;1028;-35
2022/04/07 01:47:55;;;;;;;;;;;;;;;;;;1283395;23;1043;-34
2022/04/07 01:48:26;;;;;;;;;;;;;;;;;;1283511;23;932;-35
2022/04/07 01:49:04;;;;;;;;;;;;;;;;;;1283528;23;948;-36
2022/04/07 01:49:35;;;;;;;;;;;;;;;;;;1283419;23;928;-35
2022/04/07 01:50:06;;;;;;;;;;;;;;;;;;1283323;23;944;-31
2022/04/07 01:50:38;;;;;;;;;;;;;;;;;;1283400;23;1046;-33
2022/04/07 01:51:10;;;;;;;;;;;;;;;;;;1282981;23;1944;-35
2022/04/07 01:51:48;;;;;;;;;;;;;;;;;;1283410;23;881;-30
2022/04/07 01:52:18;;;;;;;;;;;;;;;;;;1283462;23;825;-36
2022/04/07 01:52:49;;;;;;;;;;;;;;;;;;1282922;23;924;-35
2022/04/07 01:53:20;;;;;;;;;;;;;;;;;;1283402;23;941;-36
2022/04/07 01:53:57;;;;;;;;;;;;;;;;;;1283440;23;935;-31
2022/04/07 01:54:27;;;;;;;;;;;;;;;;;;1283588;23;975;-34
2022/04/07 01:55:01;;;;;;;;;;;;;;;;;;1283392;23;832;-36
2022/04/07 01:55:31;;;;;;;;;;;;;;;;;;1283496;23;817;-31
2022/04/07 01:56:03;;;;;;;;;;;;;;;;;;1283597;23;1004;-34
2022/04/07 01:56:40;;;;;;;;;;;;;;;;;;1282974;23;941;-34
2022/04/07 01:57:11;;;;;;;;;;;;;;;;;;1283532;23;829;-31
2022/04/07 01:57:43;;;;;;;;;;;;;;;;;;1283435;23;937;-34
2022/04/07 01:58:16;;;;;;;;;;;;;;;;;;1283476;23;936;-34
2022/04/07 01:58:47;;;;;;;;;;;;;;;;;;1283399;23;916;-34
2022/04/07 01:59:26;;;;;;;;;;;;;;;;;;1283325;23;793;-31
2022/04/07 01:59:57;;;;;;;;;;;;;;;;;;1283186;23;1007;-32
2022/04/07 02:00:27;;;;;;;;;;;;;;;;;;1283196;23;972;-35
2022/04/07 02:01:04;;;;;;;;;;;;;;;;;;1283360;23;908;-34
2022/04/07 02:01:35;;;;;;;;;;;;;;;;;;1283394;23;1031;-34
2022/04/07 02:02:12;;;;;;;;;;;;;;;;;;1283357;23;1163;-34
2022/04/07 02:02:42;;;;;;;;;;;;;;;;;;1283266;23;1208;-34
2022/04/07 02:03:12;;;;;;;;;;;;;;;;;;1283570;23;778;-36
2022/04/07 02:03:45;;;;;;;;;;;;;;;;;;1283580;23;1045;-34
2022/04/07 02:04:15;;;;;;;;;;;;;;;;;;1283319;23;1031;-33
2022/04/07 02:04:55;;;;;;;;;;;;;;;;;;1283450;23;897;-35
2022/04/07 02:05:26;;;;;;;;;;;;;;;;;;1283452;23;920;-34
2022/04/07 02:06:13;;;;;;;;;;;;;;;;;;1283580;23;953;-34
2022/04/07 02:06:43;;;;;;;;;;;;;;;;;;1283464;23;1027;-32
2022/04/07 02:07:14;;;;;;;;;;;;;;;;;;1282915;23;814;-35
2022/04/07 02:07:44;;;;;;;;;;;;;;;;;;1283027;23;918;-36
2022/04/07 02:08:14;;;;;;;;;;;;;;;;;;1283433;23;1184;-36
2022/04/07 02:08:51;;;;;;;;;;;;;;;;;;1283220;23;801;-35
2022/04/07 02:09:21;;;;;;;;;;;;;;;;;;1283505;23;957;-36
2022/04/07 02:09:51;;;;;;;;;;;;;;;;;;1283233;23;950;-33
2022/04/07 02:10:23;;;;;;;;;;;;;;;;;;1283375;23;644;-35
2022/04/07 02:10:53;;;;;;;;;;;;;;;;;;1283043;23;976;-35
2022/04/07 02:11:32;;;;;;;;;;;;;;;;;;1282881;23;1948;-35
2022/04/07 02:12:04;;;;;;;;;;;;;;;;;;1283015;23;766;-30
2022/04/07 02:12:36;;;;;;;;;;;;;;;;;;1282842;23;1035;-32
2022/04/07 02:13:06;;;;;;;;;;;;;;;;;;1283457;23;936;-34
2022/04/07 02:13:43;;;;;;;;;;;;;;;;;;1283445;23;952;-35
2022/04/07 02:14:13;;;;;;;;;;;;;;;;;;1283357;23;813;-33
2022/04/07 02:14:43;;;;;;;;;;;;;;;;;;1283240;23;1027;-35
2022/04/07 02:15:14;;;;;;;;;;;;;;;;;;1283222;23;885;-36
2022/04/07 02:15:51;;;;;;;;;;;;;;;;;;1283285;23;901;-34
2022/04/07 02:16:22;;;;;;;;;;;;;;;;;;1283447;23;941;-36
2022/04/07 02:16:52;;;;;;;;;;;;;;;;;;1283523;23;897;-34
2022/04/07 02:17:23;;;;;;;;;;;;;;;;;;1283329;23;801;-35
2022/04/07 02:17:53;;;;;;;;;;;;;;;;;;1283041;23;924;-36
2022/04/07 02:18:30;;;;;;;;;;;;;;;;;;1283579;23;929;-31
2022/04/07 02:19:00;;;;;;;;;;;;;;;;;;1283297;23;860;-34
2022/04/07 02:19:31;;;;;;;;;;;;;;;;;;1283310;23;929;-34
2022/04/07 02:20:03;;;;;;;;;;;;;;;;;;1283278;23;1738;-35
2022/04/07 02:20:33;;;;;;;;;;;;;;;;;;1283309;23;778;-35
2022/04/07 02:21:10;;;;;;;;;;;;;;;;;;1283285;23;964;-34
2022/04/07 02:21:40;;;;;;;;;;;;;;;;;;1283496;23;1017;-32
2022/04/07 02:22:11;;;;;;;;;;;;;;;;;;1282769;23;1060;-36
2022/04/07 02:22:41;;;;;;;;;;;;;;;;;;1283359;23;881;-34
2022/04/07 02:23:11;;;;;;;;;;;;;;;;;;1283268;23;925;-34
2022/04/07 02:23:48;;;;;;;;;;;;;;;;;;1283270;23;1027;-32
2022/04/07 02:24:18;;;;;;;;;;;;;;;;;;1283457;23;849;-35
2022/04/07 02:24:49;;;;;;;;;;;;;;;;;;1283455;23;928;-33
2022/04/07 02:25:23;;;;;;;;;;;;;;;;;;1283223;23;1542;-35
2022/04/07 02:25:53;;;;;;;;;;;;;;;;;;1283378;23;1547;-36
2022/04/07 02:26:30;;;;;;;;;;;;;;;;;;1283337;23;1059;-34
2022/04/07 02:27:01;;;;;;;;;;;;;;;;;;1283377;23;1036;-29
2022/04/07 02:27:38;;;;;;;;;;;;;;;;;;1283468;23;901;-35
2022/04/07 02:28:09;;;;;;;;;;;;;;;;;;1283332;23;801;-34
2022/04/07 02:28:40;;;;;;;;;;;;;;;;;;1283130;23;1007;-31
2022/04/07 02:29:17;;;;;;;;;;;;;;;;;;1283262;23;1036;-35
2022/04/07 02:29:47;;;;;;;;;;;;;;;;;;1282701;23;849;-34
2022/04/07 02:30:17;;;;;;;;;;;;;;;;;;1283604;23;949;-31
2022/04/07 02:30:48;;;;;;;;;;;;;;;;;;1283361;23;1004;-31
2022/04/07 02:31:18;;;;;;;;;;;;;;;;;;1283242;23;1905;-36
2022/04/07 02:31:55;;;;;;;;;;;;;;;;;;1283418;23;943;-35
2022/04/07 02:32:32;;;;;;;;;;;;;;;;;;1283396;23;858;-34
2022/04/07 02:33:02;;;;;;;;;;;;;;;;;;1283379;23;857;-30
2022/04/07 02:33:34;;;;;;;;;;;;;;;;;;1283449;23;1359;-33
2022/04/07 02:34:04;;;;;;;;;;;;;;;;;;1282816;23;1007;-36
2022/04/07 02:34:34;;;;;;;;;;;;;;;;;;1283324;23;936;-33
2022/04/07 02:35:12;;;;;;;;;;;;;;;;;;1283368;23;893;-33
2022/04/07 02:35:43;;;;;;;;;;;;;;;;;;1283224;23;953;-32
2022/04/07 02:36:14;;;;;;;;;;;;;;;;;;1283112;23;1164;-33
2022/04/07 02:36:44;;;;;;;;;;;;;;;;;;1283534;23;809;-32
2022/04/07 02:37:14;;;;;;;;;;;;;;;;;;1282361;23;977;-36
2022/04/07 02:37:51;;;;;;;;;;;;;;;;;;1283011;23;1125;-34
2022/04/07 02:38:21;;;;;;;;;;;;;;;;;;1282928;23;820;-35
2022/04/07 02:38:51;;;;;;;;;;;;;;;;;;1283173;23;1032;-35
2022/04/07 02:39:22;;;;;;;;;;;;;;;;;;1282793;23;1056;-33
2022/04/07 02:39:53;;;;;;;;;;;;;;;;;;1283381;23;920;-33
2022/04/07 02:40:37;;;;;;;;;;;;;;;;;;1284480;23;1286;-32
2022/04/07 02:41:14;;;;;;;;;;;;;;;;;;1283594;23;1047;-34
2022/04/07 02:41:51;;;;;;;;;;;;;;;;;;1283406;23;833;-32
2022/04/07 02:42:21;;;;;;;;;;;;;;;;;;1283312;23;921;-35
2022/04/07 02:42:52;;;;;;;;;;;;;;;;;;1283534;23;944;-34
2022/04/07 02:43:22;;;;;;;;;;;;;;;;;;1283228;23;1007;-36
2022/04/07 02:43:55;;;;;;;;;;;;;;;;;;1283375;23;814;-32
2022/04/07 02:44:35;;;;;;;;;;;;;;;;;;1282905;23;857;-35
2022/04/07 02:45:06;;;;;;;;;;;;;;;;;;1283117;23;900;-32
2022/04/07 02:45:37;;;;;;;;;;;;;;;;;;1283380;23;972;-31
2022/04/07 02:46:07;;;;;;;;;;;;;;;;;;1283368;23;841;-35
2022/04/07 02:46:38;;;;;;;;;;;;;;;;;;1283447;23;943;-35
2022/04/07 02:47:15;;;;;;;;;;;;;;;;;;1283367;23;999;-33
2022/04/07 02:47:45;;;;;;;;;;;;;;;;;;1283214;23;885;-34
2022/04/07 02:48:16;;;;;;;;;;;;;;;;;;1283453;23;968;-32
2022/04/07 02:48:47;;;;;;;;;;;;;;;;;;1283263;23;870;-32
2022/04/07 02:49:17;;;;;;;;;;;;;;;;;;1283128;23;972;-32
2022/04/07 02:49:54;;;;;;;;;;;;;;;;;;1282942;23;877;-36
2022/04/07 02:50:24;;;;;;;;;;;;;;;;;;1282950;23;1033;-31
2022/04/07 02:50:54;;;;;;;;;;;;;;;;;;1283206;23;1089;-33
2022/04/07 02:51:26;;;;;;;;;;;;;;;;;;1283355;23;1938;-33
2022/04/07 02:51:57;;;;;;;;;;;;;;;;;;1282781;23;1125;-35
2022/04/07 02:52:34;;;;;;;;;;;;;;;;;;1283252;23;889;-34
2022/04/07 02:53:04;;;;;;;;;;;;;;;;;;1283361;23;961;-34
2022/04/07 02:53:35;;;;;;;;;;;;;;;;;;1283309;23;1037;-33
2022/04/07 02:54:05;;;;;;;;;;;;;;;;;;1283412;23;824;-34
2022/04/07 02:54:36;;;;;;;;;;;;;;;;;;1283405;23;1271;-34
2022/04/07 02:55:13;;;;;;;;;;;;;;;;;;1283441;23;1050;-36
2022/04/07 02:55:43;;;;;;;;;;;;;;;;;;1282773;23;1055;-34
2022/04/07 02:56:13;;;;;;;;;;;;;;;;;;1283406;23;869;-31
2022/04/07 02:56:44;;;;;;;;;;;;;;;;;;1283357;23;949;-36
2022/04/07 02:57:24;;;;;;;;;;;;;;;;;;1283311;23;917;-36
2022/04/07 02:57:58;;;;;;;;;;;;;;;;;;1283255;23;865;-34
2022/04/07 02:58:28;;;;;;;;;;;;;;;;;;1283312;23;1040;-36
2022/04/07 02:58:59;;;;;;;;;;;;;;;;;;1283367;23;957;-35
2022/04/07 02:59:30;;;;;;;;;;;;;;;;;;1282759;23;813;-35
2022/04/07 03:00:07;;;;;;;;;;;;;;;;;;1283124;23;961;-31
2022/04/07 03:00:44;;;;;;;;;;;;;;;;;;1283235;23;1020;-33
2022/04/07 03:01:15;;;;;;;;;;;;;;;;;;1282902;23;874;-34
2022/04/07 03:01:45;;;;;;;;;;;;;;;;;;1283341;23;877;-34
2022/04/07 03:02:16;;;;;;;;;;;;;;;;;;1283458;23;929;-33
2022/04/07 03:02:46;;;;;;;;;;;;;;;;;;1283078;23;942;-36
2022/04/07 03:03:23;;;;;;;;;;;;;;;;;;1283293;23;818;-34
2022/04/07 03:03:55;;;;;;;;;;;;;;;;;;1283407;23;921;-36
2022/04/07 03:04:25;;;;;;;;;;;;;;;;;;1283312;23;1024;-35
2022/04/07 03:04:56;;;;;;;;;;;;;;;;;;1283198;23;924;-31
2022/04/07 03:05:26;;;;;;;;;;;;;;;;;;1283339;23;936;-37
2022/04/07 03:06:03;;;;;;;;;;;;;;;;;;1283347;23;994;-35
2022/04/07 03:06:33;;;;;;;;;;;;;;;;;;1282745;23;1017;-36
2022/04/07 03:07:04;;;;;;;;;;;;;;;;;;1282948;23;1055;-33
2022/04/07 03:07:35;;;;;;;;;;;;;;;;;;1283304;23;914;-33
2022/04/07 03:08:12;;;;;;;;;;;;;;;;;;1283279;23;866;-35
2022/04/07 03:08:43;;;;;;;;;;;;;;;;;;1283254;23;881;-34
2022/04/07 03:09:13;;;;;;;;;;;;;;;;;;1283301;23;936;-33
2022/04/07 03:09:43;;;;;;;;;;;;;;;;;;1283224;23;862;-35
2022/04/07 03:10:15;;;;;;;;;;;;;;;;;;1283206;23;1063;-31
2022/04/07 03:10:52;;;;;;;;;;;;;;;;;;1283347;23;1008;-36
2022/04/07 03:11:22;;;;;;;;;;;;;;;;;;1283053;23;1940;-32
2022/04/07 03:11:52;;;;;;;;;;;;;;;;;;1282789;23;501;-33
2022/04/07 03:12:23;;;;;;;;;;;;;;;;;;1283395;23;921;-34
2022/04/07 03:12:53;;;;;;;;;;;;;;;;;;1283194;23;1032;-35
2022/04/07 03:13:30;;;;;;;;;;;;;;;;;;1283398;23;782;-35
2022/04/07 03:14:00;;;;;;;;;;;;;;;;;;1282959;23;917;-35
2022/04/07 03:14:31;;;;;;;;;;;;;;;;;;1283070;23;941;-33
2022/04/07 03:15:02;;;;;;;;;;;;;;;;;;1283190;23;850;-34
2022/04/07 03:15:32;;;;;;;;;;;;;;;;;;1283489;23;967;-34
2022/04/07 03:16:09;;;;;;;;;;;;;;;;;;1283074;23;911;-34
2022/04/07 03:16:40;;;;;;;;;;;;;;;;;;1283204;23;907;-34
2022/04/07 03:17:10;;;;;;;;;;;;;;;;;;1282891;23;1007;-29
2022/04/07 03:17:40;;;;;;;;;;;;;;;;;;1283057;23;988;-33
2022/04/07 03:18:12;;;;;;;;;;;;;;;;;;1283314;23;876;-31
2022/04/07 03:18:49;;;;;;;;;;;;;;;;;;1283143;23;1727;-32
2022/04/07 03:19:19;;;;;;;;;;;;;;;;;;1283232;23;1041;-35
2022/04/07 03:19:49;;;;;;;;;;;;;;;;;;1283223;23;866;-30
2022/04/07 03:20:20;;;;;;;;;;;;;;;;;;1283264;23;1090;-32
2022/04/07 03:20:50;;;;;;;;;;;;;;;;;;1283248;23;1043;-36
2022/04/07 03:21:27;;;;;;;;;;;;;;;;;;1282720;23;920;-34
2022/04/07 03:21:57;;;;;;;;;;;;;;;;;;1283121;23;1037;-33
2022/04/07 03:22:27;;;;;;;;;;;;;;;;;;1282846;23;941;-34
2022/04/07 03:22:58;;;;;;;;;;;;;;;;;;1283214;23;904;-36
2022/04/07 03:23:28;;;;;;;;;;;;;;;;;;1283047;23;893;-33
2022/04/07 03:24:05;;;;;;;;;;;;;;;;;;1283389;23;949;-34
2022/04/07 03:24:35;;;;;;;;;;;;;;;;;;1283222;23;908;-33
2022/04/07 03:25:07;;;;;;;;;;;;;;;;;;1283088;23;864;-33
2022/04/07 03:25:37;;;;;;;;;;;;;;;;;;1283498;23;1044;-36
2022/04/07 03:26:07;;;;;;;;;;;;;;;;;;1283139;23;1077;-32
2022/04/07 03:26:45;;;;;;;;;;;;;;;;;;1283093;23;951;-33
2022/04/07 03:27:15;;;;;;;;;;;;;;;;;;1283418;23;877;-36
2022/04/07 03:27:45;;;;;;;;;;;;;;;;;;1282216;23;900;-36
2022/04/07 03:28:16;;;;;;;;;;;;;;;;;;1282708;23;880;-33
2022/04/07 03:28:46;;;;;;;;;;;;;;;;;;1282589;23;888;-34
2022/04/07 03:29:23;;;;;;;;;;;;;;;;;;1282840;23;976;-35
2022/04/07 03:29:53;;;;;;;;;;;;;;;;;;1283053;23;828;-35
2022/04/07 03:30:23;;;;;;;;;;;;;;;;;;1283376;23;960;-36
2022/04/07 03:31:00;;;;;;;;;;;;;;;;;;1276469;23;962;-35
2022/04/07 03:31:30;;;;;;;;;;;;;;;;;;1276557;23;1900;-34
2022/04/07 03:32:01;;;;;;;;;;;;;;;;;;1276683;23;930;-34
2022/04/07 03:32:31;;;;;;;;;;;;;;;;;;1277957;23;878;-32
2022/04/07 03:33:08;;;;;;;;;;;;;;;;;;1282746;23;801;-36
2022/04/07 03:33:38;;;;;;;;;;;;;;;;;;1283170;23;1012;-36
2022/04/07 03:34:09;;;;;;;;;;;;;;;;;;1283161;23;944;-35
2022/04/07 03:34:39;;;;;;;;;;;;;;;;;;1282698;23;1501;-31
2022/04/07 03:35:10;;;;;;;;;;;;;;;;;;1282751;23;937;-34
2022/04/07 03:35:47;;;;;;;;;;;;;;;;;;1282871;23;1188;-34
2022/04/07 03:36:17;;;;;;;;;;;;;;;;;;1282339;23;1032;-35
2022/04/07 03:36:48;;;;;;;;;;;;;;;;;;1283209;23;873;-34
2022/04/07 03:37:18;;;;;;;;;;;;;;;;;;1283292;23;947;-37
2022/04/07 03:37:49;;;;;;;;;;;;;;;;;;1283213;23;1122;-32
2022/04/07 03:38:26;;;;;;;;;;;;;;;;;;1282589;23;664;-33
2022/04/07 03:38:56;;;;;;;;;;;;;;;;;;1283296;23;915;-31
2022/04/07 03:39:26;;;;;;;;;;;;;;;;;;1283225;23;945;-33
2022/04/07 03:39:57;;;;;;;;;;;;;;;;;;1283048;23;901;-36
2022/04/07 03:40:27;;;;;;;;;;;;;;;;;;1283580;23;1088;-32
2022/04/07 03:41:11;;;;;;;;;;;;;;;;;;1289479;23;916;-34
2022/04/07 03:41:48;;;;;;;;;;;;;;;;;;1289321;23;875;-34
2022/04/07 03:42:18;;;;;;;;;;;;;;;;;;1289539;23;857;-35
2022/04/07 03:42:48;;;;;;;;;;;;;;;;;;1289594;23;995;-35
2022/04/07 03:43:19;;;;;;;;;;;;;;;;;;1289321;23;929;-31
2022/04/07 03:43:56;;;;;;;;;;;;;;;;;;1288486;23;861;-36
2022/04/07 03:44:26;;;;;;;;;;;;;;;;;;1289504;23;944;-35
2022/04/07 03:44:57;;;;;;;;;;;;;;;;;;1289470;23;1022;-35
2022/04/07 03:45:27;;;;;;;;;;;;;;;;;;1289526;23;816;-34
2022/04/07 03:45:58;;;;;;;;;;;;;;;;;;1289557;23;900;-36
2022/04/07 03:46:35;;;;;;;;;;;;;;;;;;1289604;23;963;-35
2022/04/07 03:47:06;;;;;;;;;;;;;;;;;;1289469;23;900;-33
2022/04/07 03:47:43;;;;;;;;;;;;;;;;;;1289432;23;837;-33
2022/04/07 03:48:13;;;;;;;;;;;;;;;;;;1289577;23;979;-35
2022/04/07 03:48:43;;;;;;;;;;;;;;;;;;1289400;23;840;-33